Time;durP1;ratioP1;P1;durP2;ratioP2;P2;SDS_P1;SDS_P2;PMS_P1;PMS_P2;Temp;Humidity;BMP_temperature;BMP_pressure;BME280_temperature;BME280_humidity;BME280_pressure;Samples;Min_cycle;Max_cycle;Signal;HPM_P1;HPM_P2
2022/05/06 00:01:45;;;;;;;2.97;2.63;;;14.00;99.90;;;;;;5083979;28;20232;-50
2022/05/06 00:04:30;;;;;;;3.60;2.50;;;14.00;99.90;;;;;;5080527;28;20270;-51
2022/05/06 00:07:15;;;;;;;2.83;2.63;;;13.90;99.90;;;;;;5082064;28;20259;-50
2022/05/06 00:10:01;;;;;;;4.60;3.17;;;14.00;99.90;;;;;;5083441;28;20343;-55
2022/05/06 00:12:45;;;;;;;3.60;2.77;;;14.00;99.90;;;;;;5079976;28;20209;-53
2022/05/06 00:15:29;;;;;;;3.13;2.70;;;14.00;99.90;;;;;;5083488;28;20220;-54
2022/05/06 00:18:14;;;;;;;2.83;2.40;;;13.90;99.90;;;;;;5085669;28;20207;-55
2022/05/06 00:20:58;;;;;;;3.83;2.80;;;13.90;99.90;;;;;;5084099;28;20240;-52
2022/05/06 00:23:43;;;;;;;3.77;3.03;;;13.90;99.90;;;;;;5087486;28;20199;-53
2022/05/06 00:26:28;;;;;;;2.87;2.57;;;13.90;99.90;;;;;;5085403;28;20197;-52
2022/05/06 00:29:12;;;;;;;3.17;2.87;;;13.80;99.90;;;;;;5085855;28;20208;-55
2022/05/06 00:31:56;;;;;;;3.60;3.30;;;13.80;99.90;;;;;;5087221;28;20249;-48
2022/05/06 00:34:40;;;;;;;2.70;2.50;;;13.80;99.90;;;;;;5083814;28;20309;-51
2022/05/06 00:37:25;;;;;;;3.37;2.70;;;13.80;99.90;;;;;;5086353;28;20208;-49
2022/05/06 00:40:10;;;;;;;2.87;2.60;;;13.80;99.90;;;;;;5086629;28;20192;-49
2022/05/06 00:42:56;;;;;;;2.90;2.60;;;13.70;99.90;;;;;;5083035;28;20535;-49
2022/05/06 00:45:54;;;;;;;4.97;3.27;;;13.70;99.90;;;;;;5086978;28;20295;-46
2022/05/06 00:48:41;;;;;;;5.63;2.93;;;13.60;99.90;;;;;;5086833;28;20197;-45
2022/05/06 00:51:25;;;;;;;3.60;3.07;;;13.60;99.90;;;;;;5083089;28;20251;-50
2022/05/06 00:54:10;;;;;;;3.03;2.73;;;13.50;99.90;;;;;;5087082;28;20227;-48
2022/05/06 00:56:54;;;;;;;4.93;3.10;;;13.60;99.90;;;;;;5085190;28;20275;-49
2022/05/06 01:02:41;;;;;;;4.50;2.97;;;13.50;99.90;;;;;;5088269;28;20197;-51
2022/05/06 01:05:26;;;;;;;3.63;2.63;;;13.50;99.90;;;;;;5084531;28;20251;-53
2022/05/06 01:08:11;;;;;;;3.27;2.70;;;13.50;99.90;;;;;;5084241;28;20208;-49
2022/05/06 01:10:57;;;;;;;3.90;3.37;;;13.50;99.90;;;;;;5086701;28;20251;-52
2022/05/06 01:13:44;;;;;;;3.23;2.83;;;13.40;99.90;;;;;;5083360;28;20224;-55
2022/05/06 01:16:35;;;;;;;55.93;23.53;;;13.40;99.90;;;;;;5084891;28;20803;-53
2022/05/06 01:19:20;;;;;;;3.50;3.07;;;13.40;99.90;;;;;;5086573;28;20232;-52
2022/05/06 01:22:05;;;;;;;5.80;2.80;;;13.40;99.90;;;;;;5082906;28;20244;-50
2022/05/06 01:24:49;;;;;;;3.77;3.20;;;13.40;99.90;;;;;;5085248;28;20200;-51
2022/05/06 01:27:38;;;;;;;3.23;2.93;;;13.40;99.90;;;;;;5085805;28;20193;-46
2022/05/06 01:30:38;;;;;;;4.00;3.10;;;13.30;99.90;;;;;;5081657;28;20251;-46
2022/05/06 01:33:24;;;;;;;4.00;3.13;;;13.30;99.90;;;;;;5085749;28;20201;-48
2022/05/06 01:36:09;;;;;;;3.43;2.77;;;13.30;99.90;;;;;;5085447;28;20216;-51
2022/05/06 01:39:00;;;;;;;3.80;2.63;;;13.30;99.90;;;;;;5082465;28;20251;-46
2022/05/06 01:41:45;;;;;;;2.70;2.50;;;13.30;99.90;;;;;;5086363;28;20189;-50
2022/05/06 01:44:41;;;;;;;4.87;3.27;;;13.30;99.90;;;;;;5084994;28;20185;-46
2022/05/06 01:47:27;;;;;;;3.83;2.97;;;13.30;99.90;;;;;;5082784;28;20215;-49
2022/05/06 01:50:13;;;;;;;4.30;3.37;;;13.30;99.90;;;;;;5086507;28;20219;-46
2022/05/06 01:52:59;;;;;;;5.63;3.53;;;13.20;99.90;;;;;;5084156;28;20215;-50
2022/05/06 01:55:44;;;;;;;6.53;3.23;;;13.30;99.90;;;;;;5082729;28;20204;-52
2022/05/06 01:58:28;;;;;;;4.07;3.20;;;13.20;99.90;;;;;;5086085;28;20193;-51
2022/05/06 02:01:14;;;;;;;3.93;3.17;;;13.10;99.90;;;;;;5083103;28;20197;-57
2022/05/06 02:07:01;;;;;;;4.13;3.10;;;13.10;99.90;;;;;;5087082;28;20369;-54
2022/05/06 02:09:45;;;;;;;3.57;3.13;;;13.10;99.90;;;;;;5082700;28;20200;-50
2022/05/06 02:12:30;;;;;;;3.10;2.80;;;13.00;99.90;;;;;;5083865;28;20196;-55
2022/05/06 02:15:19;;;;;;;6.37;3.70;;;13.00;99.90;;;;;;5084890;28;20289;-46
2022/05/06 02:18:03;;;;;;;4.70;3.03;;;13.00;99.90;;;;;;5082083;28;20204;-48
2022/05/06 02:20:48;;;;;;;8.47;3.30;;;12.90;99.90;;;;;;5084912;28;20204;-54
2022/05/06 02:23:32;;;;;;;4.73;3.50;;;12.90;99.90;;;;;;5084285;28;20193;-55
2022/05/06 02:26:17;;;;;;;7.10;3.30;;;12.90;99.90;;;;;;5081848;28;20204;-50
2022/05/06 02:29:02;;;;;;;6.30;3.93;;;12.90;99.90;;;;;;5085740;28;20192;-56
2022/05/06 02:34:50;;;;;;;5.43;3.33;;;12.90;99.90;;;;;;5082937;28;20224;-52
2022/05/06 02:37:34;;;;;;;5.30;3.90;;;12.80;99.90;;;;;;5085323;28;20208;-53
2022/05/06 02:40:18;;;;;;;4.67;3.73;;;12.80;99.90;;;;;;5082357;28;20192;-56
2022/05/06 02:43:04;;;;;;;5.33;4.13;;;12.70;99.90;;;;;;5081943;28;20200;-54
2022/05/06 02:45:48;;;;;;;4.97;3.63;;;12.70;99.90;;;;;;5085126;28;20232;-58
2022/05/06 02:48:33;;;;;;;6.13;3.57;;;12.70;99.90;;;;;;5081402;28;20197;-56
2022/05/06 02:51:17;;;;;;;4.70;3.60;;;12.70;99.90;;;;;;5083313;28;20240;-49
2022/05/06 02:54:02;;;;;;;5.90;3.57;;;12.80;99.90;;;;;;5083971;28;20302;-53
2022/05/06 02:56:46;;;;;;;5.80;3.80;;;12.70;99.90;;;;;;5081159;28;20188;-45
2022/05/06 02:59:31;;;;;;;3.97;3.37;;;12.80;99.90;;;;;;5085376;28;20286;-49
2022/05/06 03:02:15;;;;;;;5.37;3.83;;;12.80;99.90;;;;;;5084098;28;20258;-46
2022/05/06 03:05:00;;;;;;;6.07;3.80;;;12.80;99.90;;;;;;5081964;28;20300;-46
2022/05/06 03:07:44;;;;;;;6.47;4.40;;;12.70;99.90;;;;;;5085104;28;20339;-50
2022/05/06 03:10:29;;;;;;;5.83;3.83;;;12.60;99.90;;;;;;5082769;28;20281;-55
2022/05/06 03:13:13;;;;;;;3.40;3.10;;;12.60;99.90;;;;;;5083057;28;20189;-53
2022/05/06 03:15:57;;;;;;;5.80;4.30;;;12.60;99.90;;;;;;5084653;28;20204;-50
2022/05/06 03:18:41;;;;;;;4.00;3.57;;;12.60;99.90;;;;;;5081245;28;20246;-57
2022/05/06 03:21:25;;;;;;;4.70;4.13;;;12.60;99.90;;;;;;5084193;28;20217;-50
2022/05/06 03:24:09;;;;;;;6.20;3.90;;;12.50;99.90;;;;;;5084124;28;20197;-47
2022/05/06 03:26:54;;;;;;;4.83;3.20;;;12.60;99.90;;;;;;5081132;28;20189;-46
2022/05/06 03:29:39;;;;;;;6.17;3.37;;;12.60;99.90;;;;;;5085365;28;20284;-50
2022/05/06 03:32:24;;;;;;;3.63;3.30;;;12.60;99.90;;;;;;5082832;28;20192;-48
2022/05/06 03:35:08;;;;;;;5.10;4.03;;;12.40;99.90;;;;;;5081605;28;20294;-48
2022/05/06 03:37:53;;;;;;;5.63;3.77;;;12.50;99.90;;;;;;5084731;28;20259;-44
2022/05/06 03:40:37;;;;;;;6.13;3.73;;;12.40;99.90;;;;;;5082284;28;20205;-51
2022/05/06 03:43:22;;;;;;;5.27;3.90;;;12.40;99.90;;;;;;5081886;28;20250;-53
2022/05/06 03:46:06;;;;;;;7.20;4.10;;;12.40;99.90;;;;;;5083756;28;20189;-52
2022/05/06 03:48:53;;;;;;;6.70;3.97;;;12.40;99.90;;;;;;5079895;28;20263;-46
2022/05/06 03:51:37;;;;;;;5.80;3.67;;;12.30;99.90;;;;;;5083017;28;20239;-46
2022/05/06 03:54:21;;;;;;;5.07;3.73;;;12.30;99.90;;;;;;5083152;28;20221;-48
2022/05/06 03:57:06;;;;;;;7.27;4.07;;;12.20;99.90;;;;;;5079802;28;20335;-50
2022/05/06 03:59:50;;;;;;;4.33;3.80;;;12.30;99.90;;;;;;5084339;28;20209;-53
2022/05/06 04:02:36;;;;;;;7.20;4.13;;;12.40;99.90;;;;;;5082138;28;20220;-54
2022/05/06 04:05:20;;;;;;;9.13;4.93;;;12.40;99.90;;;;;;5080490;28;20243;-55
2022/05/06 04:08:05;;;;;;;5.73;3.80;;;12.40;99.90;;;;;;5083907;28;20200;-48
2022/05/06 04:10:49;;;;;;;4.47;3.30;;;12.50;99.90;;;;;;5081786;28;20196;-54
2022/05/06 04:13:35;;;;;;;5.80;3.23;;;12.50;99.90;;;;;;5082185;28;20212;-53
2022/05/06 04:16:22;;;;;;;18.30;7.70;;;12.60;99.90;;;;;;5084268;28;20291;-55
2022/05/06 04:19:06;;;;;;;5.17;3.90;;;12.60;99.90;;;;;;5080443;28;20201;-57
2022/05/06 04:24:53;;;;;;;3.43;3.07;;;12.40;99.90;;;;;;5083508;28;20264;-54
2022/05/06 04:27:37;;;;;;;5.23;3.83;;;12.40;99.90;;;;;;5077913;28;20231;-49
2022/05/06 04:30:21;;;;;;;6.80;3.60;;;12.40;99.90;;;;;;5082269;28;20220;-47
2022/05/06 04:33:06;;;;;;;9.50;4.63;;;12.40;99.90;;;;;;5080282;28;20201;-47
2022/05/06 04:35:51;;;;;;;4.57;3.37;;;12.40;99.90;;;;;;5077790;28;20265;-48
2022/05/06 04:38:36;;;;;;;5.20;3.90;;;12.50;99.90;;;;;;5082142;28;20185;-51
2022/05/06 04:41:20;;;;;;;6.47;3.83;;;12.50;99.90;;;;;;5080648;28;20269;-54
2022/05/06 04:44:04;;;;;;;5.43;3.37;;;12.50;99.90;;;;;;5077516;28;20232;-52
2022/05/06 04:46:48;;;;;;;4.60;3.60;;;12.50;99.90;;;;;;5080880;28;20260;-52
2022/05/06 04:49:33;;;;;;;4.43;3.40;;;12.50;99.90;;;;;;5073812;28;20189;-47
2022/05/06 04:52:17;;;;;;;4.87;3.90;;;12.60;99.90;;;;;;5078798;28;20200;-49
2022/05/06 04:55:01;;;;;;;4.47;3.70;;;12.60;99.90;;;;;;5082343;28;20204;-50
2022/05/06 04:57:46;;;;;;;8.63;3.70;;;12.50;99.90;;;;;;5077729;28;20192;-47
2022/05/06 05:00:31;;;;;;;3.57;3.10;;;12.40;99.90;;;;;;5082396;28;20259;-53
2022/05/06 05:03:16;;;;;;;4.10;3.57;;;12.40;99.90;;;;;;5079289;28;20258;-50
2022/05/06 05:06:00;;;;;;;4.50;3.20;;;12.40;99.90;;;;;;5083099;28;20270;-48
2022/05/06 05:08:45;;;;;;;4.80;3.43;;;12.50;99.90;;;;;;5085382;28;20242;-48
2022/05/06 05:11:29;;;;;;;6.40;3.50;;;12.50;99.90;;;;;;5083791;28;20254;-56
2022/05/06 05:14:14;;;;;;;4.57;3.10;;;12.40;99.90;;;;;;5080534;28;20197;-56
2022/05/06 05:16:58;;;;;;;5.70;3.87;;;12.60;99.90;;;;;;5086003;28;20185;-53
2022/05/06 05:19:43;;;;;;;4.00;3.27;;;12.50;99.90;;;;;;5081047;28;20250;-58
2022/05/06 05:22:28;;;;;;;3.00;2.67;;;12.40;99.90;;;;;;5080096;28;20192;-53
2022/05/06 05:25:12;;;;;;;4.00;2.83;;;12.40;99.90;;;;;;5083473;28;20240;-54
2022/05/06 05:27:57;;;;;;;3.50;3.20;;;12.60;99.90;;;;;;5081515;28;20193;-49
2022/05/06 05:30:42;;;;;;;4.00;3.50;;;12.60;99.90;;;;;;5080307;28;20200;-47
2022/05/06 05:33:26;;;;;;;6.30;2.37;;;12.60;99.90;;;;;;5082835;28;20197;-56
2022/05/06 05:36:11;;;;;;;3.47;3.17;;;12.60;99.90;;;;;;5080889;28;20197;-54
2022/05/06 05:38:55;;;;;;;5.37;3.37;;;12.80;99.90;;;;;;5085056;28;20189;-57
2022/05/06 05:41:39;;;;;;;5.77;3.20;;;12.90;99.90;;;;;;5083667;28;20201;-58
2022/05/06 05:50:30;;;;;;;3.07;2.77;;;12.90;99.90;;;;;;5083649;28;20200;-48
2022/05/06 05:53:14;;;;;;;3.67;3.20;;;13.10;99.90;;;;;;5080511;28;20219;-51
2022/05/06 05:55:59;;;;;;;3.97;3.63;;;13.20;99.90;;;;;;5085224;28;20203;-48
2022/05/06 05:58:45;;;;;;;3.20;2.73;;;13.00;99.90;;;;;;5079629;28;20207;-49
2022/05/06 06:01:30;;;;;;;5.33;2.80;;;13.10;99.90;;;;;;5073789;28;20193;-54
2022/05/06 06:04:15;;;;;;;2.47;2.27;;;13.20;99.90;;;;;;5079638;28;20290;-46
2022/05/06 06:07:00;;;;;;;3.13;2.63;;;13.20;99.90;;;;;;5076918;28;20240;-52
2022/05/06 06:09:44;;;;;;;2.77;2.57;;;13.10;99.90;;;;;;5079598;28;20204;-57
2022/05/06 06:12:29;;;;;;;3.57;2.37;;;13.30;99.90;;;;;;5078305;28;20273;-47
2022/05/06 06:15:15;;;;;;;2.13;2.00;;;13.40;99.90;;;;;;5078180;28;20228;-45
2022/05/06 06:17:59;;;;;;;3.13;2.73;;;13.30;99.90;;;;;;5081512;28;20273;-54
2022/05/06 06:20:44;;;;;;;2.20;2.10;;;13.50;99.90;;;;;;5081369;28;20211;-57
2022/05/06 06:23:30;;;;;;;2.60;2.40;;;13.60;99.90;;;;;;5078839;28;20193;-45
2022/05/06 06:26:15;;;;;;;2.47;2.27;;;13.60;99.90;;;;;;5082996;28;20232;-49
2022/05/06 06:29:00;;;;;;;2.37;2.17;;;13.70;99.90;;;;;;5081568;28;20204;-55
2022/05/06 06:31:45;;;;;;;4.20;2.10;;;13.50;99.90;;;;;;5079407;28;20186;-47
2022/05/06 06:34:29;;;;;;;2.50;2.17;;;13.70;99.90;;;;;;5077943;28;20192;-48
2022/05/06 06:37:14;;;;;;;2.53;2.33;;;13.90;99.90;;;;;;5080049;28;20271;-52
2022/05/06 06:39:58;;;;;;;2.93;2.67;;;13.90;99.90;;;;;;5085051;28;20207;-48
2022/05/06 06:42:44;;;;;;;3.10;2.10;;;14.10;99.90;;;;;;5084797;28;20229;-50
2022/05/06 06:45:29;;;;;;;2.37;2.27;;;14.10;99.90;;;;;;5081795;28;20313;-45
2022/05/06 06:48:13;;;;;;;2.60;2.03;;;14.00;99.90;;;;;;5085551;28;20273;-49
2022/05/06 06:50:58;;;;;;;4.00;3.00;;;14.30;99.90;;;;;;5083763;28;20212;-49
2022/05/06 06:53:43;;;;;;;3.17;1.80;;;14.40;99.90;;;;;;5082546;28;20193;-44
2022/05/06 06:56:27;;;;;;;2.90;2.50;;;14.30;99.90;;;;;;5085725;28;20192;-46
2022/05/06 06:59:11;;;;;;;3.07;2.20;;;14.50;99.90;;;;;;5082636;28;20200;-53
2022/05/06 07:01:55;;;;;;;2.63;2.03;;;14.50;99.90;;;;;;5084030;28;20192;-50
2022/05/06 07:04:39;;;;;;;1.70;1.57;;;14.70;99.90;;;;;;5085334;28;20224;-49
2022/05/06 07:13:30;;;;;;;2.10;1.77;;;14.80;99.90;;;;;;5085877;28;20224;-47
2022/05/06 07:16:15;;;;;;;2.27;1.60;;;14.90;99.90;;;;;;5082907;28;20898;-50
2022/05/06 07:18:59;;;;;;;2.10;1.40;;;15.00;99.90;;;;;;5084380;28;20247;-51
2022/05/06 07:21:44;;;;;;;1.87;1.63;;;14.90;99.90;;;;;;5084719;28;20204;-49
2022/05/06 07:24:28;;;;;;;1.40;1.40;;;15.10;99.90;;;;;;5081058;28;20287;-48
2022/05/06 07:27:13;;;;;;;1.30;1.30;;;15.40;99.90;;;;;;5084219;28;20257;-51
2022/05/06 07:29:58;;;;;;;1.63;1.53;;;15.70;99.90;;;;;;5083942;28;20207;-53
2022/05/06 07:32:42;;;;;;;1.53;1.47;;;15.70;99.90;;;;;;5082010;28;20199;-53
2022/05/06 07:35:26;;;;;;;1.50;1.40;;;15.40;99.90;;;;;;5084865;28;20733;-48
2022/05/06 07:38:11;;;;;;;3.03;1.43;;;15.40;99.90;;;;;;5082616;28;20193;-48
2022/05/06 07:40:55;;;;;;;1.27;1.20;;;15.50;99.90;;;;;;5082496;28;20280;-46
2022/05/06 07:43:39;;;;;;;1.77;1.50;;;15.50;99.90;;;;;;5084761;28;20195;-54
2022/05/06 07:46:25;;;;;;;1.60;1.50;;;15.80;99.90;;;;;;5081745;28;20196;-55
2022/05/06 07:49:09;;;;;;;7.37;3.53;;;15.70;99.90;;;;;;5082786;28;20242;-53
2022/05/06 07:51:54;;;;;;;1.43;1.43;;;16.00;99.90;;;;;;5083383;28;20195;-50
2022/05/06 07:54:38;;;;;;;2.37;1.57;;;15.90;99.90;;;;;;5079438;28;20195;-53
2022/05/06 07:57:22;;;;;;;1.63;1.53;;;16.10;99.90;;;;;;5082135;28;20200;-52
2022/05/06 08:00:07;;;;;;;1.60;1.50;;;16.00;99.90;;;;;;5081174;28;20250;-54
2022/05/06 08:05:59;;;;;;;1.60;1.50;;;16.70;99.90;;;;;;5084976;28;20329;-53
2022/05/06 08:08:43;;;;;;;1.23;1.23;;;16.80;99.90;;;;;;5082059;28;20185;-50
2022/05/06 08:11:28;;;;;;;1.87;1.77;;;16.60;99.90;;;;;;5079895;28;20294;-50
2022/05/06 08:14:16;;;;;;;1.43;1.33;;;16.60;99.90;;;;;;5083565;28;20189;-49
2022/05/06 08:17:01;;;;;;;1.37;1.37;;;16.80;99.90;;;;;;5078390;28;20255;-49
2022/05/06 08:19:45;;;;;;;1.80;1.70;;;17.00;99.90;;;;;;5079534;28;20212;-51
2022/05/06 08:22:30;;;;;;;1.50;1.40;;;16.80;99.90;;;;;;5076821;28;20188;-45
2022/05/06 08:25:14;;;;;;;1.80;1.57;;;17.00;99.90;;;;;;5076077;28;20216;-50
2022/05/06 08:27:58;;;;;;;2.00;1.60;;;17.10;99.90;;;;;;5080095;28;20360;-53
2022/05/06 08:30:44;;;;;;;1.53;1.43;;;16.80;99.90;;;;;;5081663;28;20285;-51
2022/05/06 08:33:28;;;;;;;2.00;1.90;;;16.70;99.90;;;;;;5073513;28;20253;-50
2022/05/06 08:36:14;;;;;;;1.70;1.60;;;17.00;99.90;;;;;;5077528;28;20272;-53
2022/05/06 08:38:58;;;;;;;1.70;1.60;;;17.00;99.90;;;;;;5078502;28;20255;-55
2022/05/06 08:41:42;;;;;;;3.03;1.63;;;17.20;99.90;;;;;;5070704;28;20249;-49
2022/05/06 08:50:56;;;;;;;1.37;1.37;;;17.80;99.90;;;;;;5072308;28;20300;-50
2022/05/06 08:53:40;;;;;;;2.10;1.90;;;18.10;99.90;;;;;;5081435;28;20193;-53
2022/05/06 08:56:24;;;;;;;1.90;1.80;;;18.50;99.60;;;;;;5069256;28;20213;-58
2022/05/06 08:59:09;;;;;;;1.87;1.77;;;18.80;99.60;;;;;;5073826;28;20192;-53
2022/05/06 09:01:55;;;;;;;2.40;2.20;;;19.20;98.80;;;;;;5073841;28;20279;-52
2022/05/06 09:04:39;;;;;;;2.03;1.83;;;19.40;98.50;;;;;;5075719;28;20226;-52
2022/05/06 09:07:25;;;;;;;2.30;2.10;;;19.30;98.70;;;;;;5068127;28;20344;-54
2022/05/06 09:10:12;;;;;;;2.00;1.90;;;19.20;98.80;;;;;;5081932;28;20200;-52
2022/05/06 09:13:02;;;;;;;2.67;2.23;;;18.90;99.20;;;;;;5072311;28;20191;-55
2022/05/06 09:18:50;;;;;;;2.97;1.87;;;18.30;99.80;;;;;;5072100;28;20214;-55
2022/05/06 09:21:36;;;;;;;2.13;2.03;;;18.40;99.90;;;;;;5071692;28;20244;-49
2022/05/06 09:24:20;;;;;;;3.50;2.23;;;18.40;99.90;;;;;;5076847;28;20236;-49
2022/05/06 09:27:06;;;;;;;2.13;1.93;;;18.30;99.90;;;;;;5079911;28;20219;-49
2022/05/06 09:29:52;;;;;;;3.40;2.27;;;18.20;99.90;;;;;;5069797;28;20287;-49
2022/05/06 09:32:37;;;;;;;2.13;2.03;;;17.80;99.90;;;;;;5075201;28;20193;-52
2022/05/06 09:35:26;;;;;;;2.77;2.23;;;18.10;99.90;;;;;;5074518;28;20208;-50
2022/05/06 09:38:16;;;;;;;2.37;2.10;;;18.20;99.90;;;;;;5065361;28;20335;-50
2022/05/06 09:41:18;;;;;;;2.83;2.63;;;18.20;99.90;;;;;;5074443;28;20226;-48
2022/05/06 09:44:05;;;;;;;4.07;2.10;;;17.90;99.90;;;;;;5073797;28;20236;-48
2022/05/06 09:47:07;;;;;;;4.07;3.03;;;18.10;99.90;;;;;;5066360;28;20189;-48
2022/05/06 09:49:53;;;;;;;7.20;4.30;;;18.10;99.90;;;;;;5069954;28;20190;-51
2022/05/06 09:52:38;;;;;;;3.40;3.10;;;18.00;99.90;;;;;;5082905;28;20196;-50
2022/05/06 09:55:23;;;;;;;3.90;3.50;;;18.00;99.90;;;;;;5067122;28;20229;-45
2022/05/06 09:58:08;;;;;;;4.97;3.93;;;18.00;99.90;;;;;;5075668;28;20194;-47
2022/05/06 10:00:53;;;;;;;3.00;2.80;;;18.30;99.90;;;;;;5077329;28;20262;-49
2022/05/06 10:03:39;;;;;;;7.07;3.57;;;18.00;99.90;;;;;;5062017;28;20186;-48
2022/05/06 10:06:26;;;;;;;9.47;6.00;;;18.00;99.90;;;;;;5073302;28;20231;-46
2022/05/06 10:09:10;;;;;;;5.27;3.20;;;18.10;99.90;;;;;;5074877;28;20338;-50
2022/05/06 10:11:58;;;;;;;3.70;3.40;;;18.00;99.90;;;;;;5072676;28;20267;-45
2022/05/06 10:14:44;;;;;;;2.93;2.73;;;17.80;99.90;;;;;;5077836;28;20229;-49
2022/05/06 10:17:48;;;;;;;2.70;2.50;;;17.60;99.90;;;;;;5069672;28;20197;-47
2022/05/06 10:20:43;;;;;;;8.90;5.03;;;17.60;99.90;;;;;;5075609;28;20239;-47
2022/05/06 10:23:47;;;;;;;4.10;3.70;;;17.90;99.90;;;;;;5074977;28;20202;-51
2022/05/06 10:26:37;;;;;;;3.70;3.03;;;17.80;99.90;;;;;;5073488;28;20209;-50
2022/05/06 10:32:51;;;;;;;5.40;3.63;;;18.20;99.90;;;;;;5078969;28;20205;-53
2022/05/06 10:35:38;;;;;;;3.57;3.00;;;18.30;99.90;;;;;;5074342;28;20220;-50
2022/05/06 10:38:26;;;;;;;3.00;2.80;;;18.40;99.90;;;;;;5066139;28;20205;-55
2022/05/06 10:41:22;;;;;;;4.70;4.07;;;18.80;99.90;;;;;;5080092;28;20201;-46
2022/05/06 10:44:06;;;;;;;34.07;16.20;;;18.80;99.90;;;;;;5063579;28;20311;-52
2022/05/06 10:46:34;;;;;;;11.00;7.70;;;18.40;99.90;;;;;;5046743;28;20218;-52
2022/05/06 10:49:40;;;;;;;11.27;7.07;;;18.50;99.90;;;;;;5070616;28;20202;-50
2022/05/06 10:52:28;;;;;;;12.47;7.13;;;18.50;99.90;;;;;;5072248;28;20281;-54
2022/05/06 10:55:14;;;;;;;13.83;8.17;;;18.90;99.90;;;;;;5072607;28;20196;-52
2022/05/06 10:58:01;;;;;;;4.07;3.30;;;19.20;99.90;;;;;;5064244;28;20200;-49
2022/05/06 11:00:45;;;;;;;5.50;4.43;;;19.30;99.90;;;;;;5065364;28;20272;-50
2022/05/06 11:03:29;;;;;;;4.60;3.40;;;19.10;99.90;;;;;;5075647;28;20228;-45
2022/05/06 11:05:55;;;;;;;3.03;2.83;;;18.90;99.90;;;;;;5053683;28;20215;-48
2022/05/06 11:08:39;;;;;;;2.87;2.67;;;18.70;99.90;;;;;;5070149;28;20207;-50
2022/05/06 11:11:23;;;;;;;3.07;2.70;;;18.70;99.90;;;;;;5079699;28;20207;-48
2022/05/06 11:14:17;;;;;;;3.43;2.80;;;19.00;99.90;;;;;;5078319;28;20347;-49
2022/05/06 11:17:22;;;;;;;2.97;2.60;;;18.80;99.90;;;;;;5076658;28;20201;-47
2022/05/06 11:20:42;;;;;;;2.70;2.50;;;19.00;99.90;;;;;;5076814;28;20208;-45
2022/05/06 11:23:29;;;;;;;2.90;2.70;;;19.10;99.90;;;;;;5013732;28;20314;-55
2022/05/06 11:26:26;;;;;;;2.97;2.77;;;19.10;99.90;;;;;;5005563;28;20222;-49
2022/05/06 11:29:11;;;;;;;4.63;2.90;;;18.90;99.90;;;;;;5010833;28;20179;-48
2022/05/06 11:31:55;;;;;;;4.10;2.37;;;19.10;99.90;;;;;;5013662;28;20182;-48
2022/05/06 11:34:52;;;;;;;4.87;3.17;;;19.10;99.90;;;;;;5011268;28;20350;-53
2022/05/06 11:37:40;;;;;;;3.27;2.27;;;19.10;99.90;;;;;;5014804;28;20490;-51
2022/05/06 11:43:20;;;;;;;3.43;3.13;;;19.60;99.90;;;;;;5020714;28;20243;-51
2022/05/06 11:50:20;;;;;;;3.90;2.50;;;19.50;99.90;;;;;;5030833;28;20190;-47
2022/05/06 11:53:08;;;;;;;6.63;4.73;;;19.60;99.90;;;;;;4999871;28;20199;-49
2022/05/06 11:55:54;;;;;;;4.43;3.95;;;20.10;99.30;;;;;;5004944;28;20215;-47
2022/05/06 11:58:39;;;;;;;4.68;4.20;;;20.40;99.00;;;;;;5073316;28;20299;-49
2022/05/06 12:01:25;;;;;;;2.95;2.47;;;20.60;98.60;;;;;;5062150;28;20193;-51
2022/05/06 12:04:11;;;;;;;3.40;2.55;;;21.10;98.10;;;;;;5075969;28;20274;-50
2022/05/06 12:06:56;;;;;;;2.92;2.60;;;20.70;98.10;;;;;;5063704;28;20218;-47
2022/05/06 12:09:45;;;;;;;4.25;2.30;;;20.50;98.60;;;;;;5069843;28;20205;-51
2022/05/06 12:12:29;;;;;;;2.30;2.20;;;20.40;98.40;;;;;;5069492;28;20200;-50
2022/05/06 12:15:14;;;;;;;3.28;2.50;;;20.00;98.90;;;;;;5075619;28;20199;-52
2022/05/06 12:18:02;;;;;;;2.65;2.45;;;20.20;98.80;;;;;;5068035;28;20200;-49
2022/05/06 12:20:46;;;;;;;3.00;2.60;;;20.20;98.70;;;;;;5070094;28;20192;-45
2022/05/06 12:23:31;;;;;;;2.50;2.38;;;20.20;98.70;;;;;;5085805;28;20205;-45
2022/05/06 12:26:34;;;;;;;2.67;2.20;;;20.30;98.40;;;;;;5082995;28;20212;-50
2022/05/06 12:29:20;;;;;;;2.70;2.50;;;20.40;98.90;;;;;;5087896;28;20244;-52
2022/05/06 12:32:05;;;;;;;5.05;2.35;;;20.10;99.00;;;;;;5084751;28;20196;-50
2022/05/06 12:35:05;;;;;;;2.50;2.30;;;20.00;99.00;;;;;;5069055;28;20189;-49
2022/05/06 12:37:58;;;;;;;2.60;2.40;;;19.70;98.90;;;;;;5076408;28;20296;-53
2022/05/06 12:40:43;;;;;;;2.40;2.27;;;19.50;99.30;;;;;;5085768;28;20244;-52
2022/05/06 12:43:27;;;;;;;2.40;2.30;;;19.20;99.70;;;;;;5083656;28;20197;-49
2022/05/06 12:46:23;;;;;;;2.90;2.47;;;19.20;99.90;;;;;;5079229;28;20192;-49
2022/05/06 12:52:11;;;;;;;2.47;2.27;;;19.10;99.40;;;;;;5085535;28;20196;-47
2022/05/06 12:54:55;;;;;;;2.60;2.40;;;18.90;99.60;;;;;;5087254;28;20238;-45
2022/05/06 12:57:40;;;;;;;1.93;1.87;;;18.90;99.80;;;;;;5078720;28;20208;-51
2022/05/06 13:00:24;;;;;;;2.43;2.17;;;18.90;99.90;;;;;;5078488;28;20190;-48
2022/05/06 13:03:09;;;;;;;1.90;1.80;;;18.80;99.90;;;;;;5081732;28;20281;-50
2022/05/06 13:05:56;;;;;;;2.30;2.10;;;18.70;99.90;;;;;;5082147;28;20228;-56
2022/05/06 13:08:40;;;;;;;2.60;2.40;;;18.70;99.90;;;;;;5085410;28;20192;-47
2022/05/06 13:11:25;;;;;;;2.23;2.13;;;18.60;99.90;;;;;;5086659;28;20189;-45
2022/05/06 13:14:10;;;;;;;2.30;2.20;;;18.60;99.90;;;;;;5084585;28;20206;-51
2022/05/06 13:16:54;;;;;;;2.30;2.10;;;18.50;99.90;;;;;;5086792;28;20224;-49
2022/05/06 13:19:38;;;;;;;4.07;2.37;;;18.40;99.90;;;;;;5085294;28;20216;-49
2022/05/06 13:22:23;;;;;;;2.03;1.93;;;18.30;99.90;;;;;;5084240;28;20231;-50
2022/05/06 13:25:08;;;;;;;2.20;2.10;;;18.30;99.90;;;;;;5085723;28;20290;-51
2022/05/06 13:27:52;;;;;;;2.70;2.40;;;18.40;99.90;;;;;;5083574;28;20201;-56
2022/05/06 13:30:37;;;;;;;3.63;2.87;;;18.30;99.90;;;;;;5083913;28;20252;-51
2022/05/06 13:33:22;;;;;;;3.03;2.73;;;18.10;99.90;;;;;;5086931;28;20227;-47
2022/05/06 13:36:06;;;;;;;3.57;2.50;;;18.00;99.90;;;;;;5081832;28;20196;-53
2022/05/06 13:38:51;;;;;;;3.07;2.77;;;18.00;99.90;;;;;;5084960;28;20326;-49
2022/05/06 13:41:35;;;;;;;3.57;3.03;;;18.10;99.90;;;;;;5085383;28;20189;-55
2022/05/06 13:44:19;;;;;;;3.67;3.10;;;18.30;99.90;;;;;;5082395;28;20285;-56
2022/05/06 13:47:04;;;;;;;2.73;2.53;;;18.20;99.90;;;;;;5065725;28;20202;-53
2022/05/06 13:49:49;;;;;;;3.47;3.17;;;18.40;99.90;;;;;;5063926;28;20189;-56
2022/05/06 13:52:34;;;;;;;4.00;3.40;;;18.40;99.90;;;;;;5062003;28;20189;-49
2022/05/06 13:55:18;;;;;;;3.90;3.47;;;18.30;99.90;;;;;;5066854;28;20189;-54
2022/05/06 14:01:05;;;;;;;5.23;3.83;;;17.60;99.90;;;;;;5064686;28;20193;-53
2022/05/06 14:03:50;;;;;;;3.30;3.00;;;17.50;99.90;;;;;;5066680;28;20241;-52
2022/05/06 14:06:35;;;;;;;4.03;3.57;;;17.80;99.90;;;;;;5063009;28;20268;-57
2022/05/06 14:09:19;;;;;;;5.73;3.77;;;17.60;99.90;;;;;;5064624;28;20194;-55
2022/05/06 14:12:04;;;;;;;6.23;3.67;;;17.60;99.90;;;;;;5065703;28;20236;-54
2022/05/06 14:14:48;;;;;;;5.20;4.10;;;17.80;99.90;;;;;;5061994;28;20213;-54
2022/05/06 14:17:33;;;;;;;4.53;3.57;;;17.40;99.90;;;;;;5065098;28;20196;-51
2022/05/06 14:20:17;;;;;;;4.57;4.03;;;17.30;99.90;;;;;;5065281;28;20192;-57
2022/05/06 14:23:02;;;;;;;4.70;3.50;;;17.30;99.90;;;;;;5062448;28;20285;-50
2022/05/06 14:25:46;;;;;;;4.37;3.80;;;17.20;99.90;;;;;;5066216;28;20229;-55
2022/05/06 14:28:31;;;;;;;4.90;3.50;;;17.10;99.90;;;;;;5064604;28;20199;-58
2022/05/06 14:31:16;;;;;;;4.80;3.90;;;17.10;99.90;;;;;;5062828;28;20189;-53
2022/05/06 14:34:00;;;;;;;5.27;3.30;;;17.10;99.90;;;;;;5066599;28;20715;-45
2022/05/06 14:36:44;;;;;;;5.53;4.23;;;17.00;99.90;;;;;;5062273;28;20205;-56
2022/05/06 14:39:28;;;;;;;4.77;3.83;;;16.90;99.90;;;;;;5064104;28;20200;-49
2022/05/06 14:42:12;;;;;;;4.20;3.20;;;16.70;99.90;;;;;;5064866;28;20201;-53
2022/05/06 14:44:58;;;;;;;3.63;3.33;;;16.60;99.90;;;;;;5061650;28;20319;-52
2022/05/06 14:47:42;;;;;;;3.60;3.30;;;16.60;99.90;;;;;;5065092;28;20209;-49
2022/05/06 14:50:27;;;;;;;3.83;3.20;;;16.50;99.90;;;;;;5064255;28;20617;-55
2022/05/06 14:53:11;;;;;;;6.93;3.33;;;15.90;99.90;;;;;;5061641;28;20201;-54
2022/05/06 14:55:56;;;;;;;4.03;3.63;;;15.50;99.90;;;;;;5065519;28;20190;-52
2022/05/06 14:58:40;;;;;;;3.57;3.27;;;15.30;99.90;;;;;;5062416;28;20198;-53
2022/05/06 15:01:25;;;;;;;4.10;3.13;;;15.20;99.90;;;;;;5062945;28;20202;-53
2022/05/06 15:04:09;;;;;;;5.17;3.90;;;15.30;99.90;;;;;;5065528;28;20244;-49
2022/05/06 15:06:53;;;;;;;4.90;3.53;;;15.30;99.90;;;;;;5061626;28;20221;-48
2022/05/06 15:09:37;;;;;;;4.93;3.83;;;15.30;99.90;;;;;;5063593;28;20210;-54
2022/05/06 15:12:23;;;;;;;6.90;4.30;;;15.30;99.90;;;;;;5064788;28;20201;-52
2022/05/06 15:15:07;;;;;;;5.27;3.63;;;15.30;99.90;;;;;;5061084;28;20201;-52